Time;durP1;ratioP1;P1;durP2;ratioP2;P2;SDS_P1;SDS_P2;PMS_P1;PMS_P2;Temp;Humidity;BMP_temperature;BMP_pressure;BME280_temperature;BME280_humidity;BME280_pressure;Samples;Min_cycle;Max_cycle;Signal;HPM_P1;HPM_P2
2022/02/10 00:04:22;;;;;;;400.13;380.53;;;9.10;99.90;;;;;;4273938;33;20177;-61
2022/02/10 00:07:04;;;;;;;418.57;397.60;;;9.10;99.90;;;;;;4294228;33;20191;-61
2022/02/10 00:18:20;;;;;;;426.20;404.27;;;9.20;99.90;;;;;;4259442;33;20178;-63
2022/02/10 00:20:52;;;;;;;423.40;402.00;;;9.20;99.90;;;;;;4257169;33;20162;-63
2022/02/10 00:23:33;;;;;;;422.00;400.50;;;9.20;99.90;;;;;;4258172;33;20166;-63
2022/02/10 00:34:10;;;;;;;445.60;423.70;;;9.10;99.90;;;;;;4258288;33;20190;-61
2022/02/10 00:34:32;;;;;;;440.40;418.37;;;9.20;99.90;;;;;;4354974;32;20673;-62
2022/02/10 00:37:11;;;;;;;437.40;415.33;;;9.20;99.90;;;;;;4404794;32;20576;-62
2022/02/10 00:42:19;;;;;;;445.17;422.47;;;9.10;99.90;;;;;;4385507;32;20183;-60
2022/02/10 00:44:47;;;;;;;453.50;430.23;;;9.10;99.90;;;;;;4395750;32;20219;-63
2022/02/10 00:47:14;;;;;;;449.73;427.30;;;9.10;99.90;;;;;;4394142;32;20689;-62
2022/02/10 00:49:42;;;;;;;437.17;415.23;;;9.10;99.90;;;;;;4429405;32;20171;-63
2022/02/10 00:52:09;;;;;;;445.40;423.07;;;9.10;99.90;;;;;;4448623;32;20156;-63
2022/02/10 00:54:38;;;;;;;442.07;419.77;;;9.10;99.90;;;;;;4453082;32;20143;-63
2022/02/10 00:57:07;;;;;;;461.53;437.97;;;9.00;99.90;;;;;;4452388;32;20177;-63
2022/02/10 00:59:44;;;;;;;439.80;417.50;;;9.00;99.90;;;;;;4440142;32;20217;-63
2022/02/10 01:02:36;;;;;;;436.93;414.70;;;9.00;99.90;;;;;;4446273;32;20235;-63
2022/02/10 01:10:45;;;;;;;437.80;415.60;;;9.00;99.90;;;;;;4453814;32;20193;-62
2022/02/10 01:13:29;;;;;;;441.30;418.80;;;9.10;99.90;;;;;;4444422;32;20158;-62
2022/02/10 01:29:44;;;;;;;434.67;412.77;;;8.90;99.90;;;;;;4436855;32;20188;-63
2022/02/10 01:32:12;;;;;;;443.43;420.77;;;8.90;99.90;;;;;;4437109;32;20170;-64
2022/02/10 01:34:46;;;;;;;434.17;412.40;;;8.90;99.90;;;;;;4437755;32;20178;-62
2022/02/10 01:37:13;;;;;;;416.40;395.03;;;8.90;99.90;;;;;;4433986;32;20595;-65
2022/02/10 01:39:47;;;;;;;418.97;397.67;;;8.90;99.90;;;;;;4439061;32;20163;-62
2022/02/10 02:04:24;;;;;;;405.47;384.73;;;8.90;99.90;;;;;;4398776;32;20274;-62
2022/02/10 02:06:55;;;;;;;435.13;413.27;;;8.90;99.90;;;;;;4391524;32;20521;-62
2022/02/10 02:09:22;;;;;;;457.70;434.23;;;8.80;99.90;;;;;;4403496;32;20172;-62
2022/02/10 02:11:53;;;;;;;429.93;408.93;;;8.80;99.90;;;;;;4403517;32;20160;-63
2022/02/10 02:14:21;;;;;;;449.43;426.63;;;8.80;99.90;;;;;;4401011;32;20175;-62
2022/02/10 02:16:51;;;;;;;431.73;410.03;;;8.90;99.90;;;;;;4393255;32;20160;-61
2022/02/10 02:19:18;;;;;;;450.20;427.77;;;8.90;99.90;;;;;;4386013;32;21657;-62
2022/02/10 02:21:45;;;;;;;435.83;413.93;;;8.90;99.90;;;;;;4383891;32;20608;-61
2022/02/10 02:24:20;;;;;;;436.90;415.20;;;8.80;99.90;;;;;;4386125;32;20176;-64
2022/02/10 02:26:49;;;;;;;438.13;416.33;;;8.80;99.90;;;;;;4406750;32;20160;-62
2022/02/10 02:29:27;;;;;;;415.60;395.03;;;8.80;99.90;;;;;;4435792;32;20159;-63
2022/02/10 02:32:11;;;;;;;408.00;387.13;;;8.80;99.90;;;;;;4428646;32;21533;-62
2022/02/10 02:37:44;;;;;;;405.57;385.23;;;8.70;99.90;;;;;;4438800;32;20203;-63
2022/02/10 03:05:11;;;;;;;421.83;400.43;;;8.70;99.90;;;;;;4452110;32;20185;-61
2022/02/10 03:07:45;;;;;;;437.57;415.77;;;8.70;99.90;;;;;;4451174;32;20215;-61
2022/02/10 03:10:37;;;;;;;435.27;413.70;;;8.70;99.90;;;;;;4438083;32;20625;-64
2022/02/10 03:13:09;;;;;;;429.07;407.63;;;8.70;99.90;;;;;;4444593;32;20198;-62
2022/02/10 03:15:44;;;;;;;409.33;388.80;;;8.70;99.90;;;;;;4438565;32;20161;-62
2022/02/10 03:18:22;;;;;;;437.93;416.07;;;8.70;99.90;;;;;;4438452;32;20176;-61
2022/02/10 03:21:13;;;;;;;443.37;421.33;;;8.70;99.90;;;;;;4451289;32;20150;-62
2022/02/10 04:08:17;;;;;;;426.67;404.47;;;8.40;99.90;;;;;;4331453;33;20159;-62
2022/02/10 04:11:14;;;;;;;440.40;417.43;;;8.40;99.90;;;;;;4329651;33;20196;-61
2022/02/10 04:13:52;;;;;;;428.43;405.80;;;8.40;99.90;;;;;;4321723;33;20142;-64
2022/02/10 04:16:23;;;;;;;440.83;417.87;;;8.40;99.90;;;;;;4324608;33;20158;-64
2022/02/10 04:21:56;;;;;;;430.97;408.57;;;8.40;99.90;;;;;;4315883;33;20566;-62
2022/02/10 04:24:41;;;;;;;406.87;385.80;;;8.40;99.90;;;;;;4314801;33;20207;-62
2022/02/10 04:27:15;;;;;;;400.97;380.30;;;8.40;99.90;;;;;;4315692;33;20149;-61
2022/02/10 04:30:12;;;;;;;388.90;368.17;;;8.40;99.90;;;;;;4315663;33;20620;-62
2022/02/10 04:44:22;;;;;;;381.90;361.13;;;8.20;99.90;;;;;;4262691;33;20184;-62
2022/02/10 04:55:39;;;;;;;418.97;395.40;;;8.20;99.90;;;;;;4302934;33;20172;-62
2022/02/10 04:58:24;;;;;;;410.10;386.37;;;8.10;99.90;;;;;;4315625;33;20177;-62
2022/02/10 05:01:19;;;;;;;433.10;409.33;;;8.10;99.90;;;;;;4322064;33;20188;-62
2022/02/10 05:17:40;;;;;;;434.53;409.43;;;8.20;99.90;;;;;;4407566;32;20172;-62
2022/02/10 05:20:22;;;;;;;451.47;424.23;;;8.10;99.90;;;;;;4449243;32;20150;-63
2022/02/10 05:23:03;;;;;;;450.30;423.87;;;8.10;99.90;;;;;;4437296;32;20154;-62
2022/02/10 05:33:50;;;;;;;410.53;386.00;;;8.20;99.90;;;;;;4451046;32;20473;-63
2022/02/10 05:36:20;;;;;;;411.30;386.53;;;8.10;99.90;;;;;;4441103;32;20151;-61
2022/02/10 05:38:51;;;;;;;408.30;383.10;;;8.10;99.90;;;;;;4439039;32;20155;-62
2022/02/10 05:53:09;;;;;;;398.03;373.37;;;8.10;99.90;;;;;;4391394;32;20164;-61
2022/02/10 05:58:34;;;;;;;416.80;392.63;;;8.10;99.90;;;;;;4359593;32;20199;-61
2022/02/10 06:51:25;;;;;;;386.40;369.67;;;7.50;99.90;;;;;;4373747;32;20613;-60
2022/02/10 06:54:04;;;;;;;410.20;392.50;;;7.50;99.90;;;;;;4394480;32;20649;-60
2022/02/10 07:05:32;;;;;;;407.77;390.40;;;7.40;99.90;;;;;;4282549;33;20575;-61
2022/02/10 07:11:07;;;;;;;404.87;387.70;;;7.40;99.90;;;;;;4299115;33;20305;-61
2022/02/10 07:47:33;;;;;;;424.83;406.40;;;7.50;99.90;;;;;;4357168;32;21021;-62
2022/02/10 08:49:55;;;;;;;477.57;456.13;;;7.80;99.90;;;;;;4448666;32;20467;-61
2022/02/10 08:55:32;;;;;;;445.73;425.97;;;8.10;99.90;;;;;;4456504;32;20196;-61
2022/02/10 09:03:58;;;;;;;426.80;408.03;;;8.80;99.90;;;;;;4452976;32;20210;-61
2022/02/10 09:06:51;;;;;;;432.47;413.43;;;8.80;99.90;;;;;;4459456;32;20156;-60
2022/02/10 10:00:16;;;;;;;281.13;269.23;;;10.20;99.90;;;;;;4354817;32;20288;-62
2022/02/10 10:02:49;;;;;;;310.70;297.47;;;10.40;99.90;;;;;;4361342;32;20502;-62
2022/02/10 10:05:32;;;;;;;308.87;295.77;;;10.40;99.90;;;;;;4390107;32;20167;-61
2022/02/10 10:08:25;;;;;;;299.47;286.83;;;10.30;99.90;;;;;;4387556;32;20211;-62
2022/02/10 10:11:30;;;;;;;304.03;291.27;;;10.20;99.90;;;;;;4381486;32;20164;-62
2022/02/10 10:14:12;;;;;;;303.13;290.47;;;10.40;99.90;;;;;;4389436;32;20169;-62
2022/02/10 10:16:58;;;;;;;265.80;254.43;;;10.80;99.90;;;;;;4378324;32;20160;-61
2022/02/10 10:19:57;;;;;;;225.40;216.03;;;10.70;99.90;;;;;;4397436;32;20183;-62
2022/02/10 10:26:16;;;;;;;269.47;258.20;;;10.30;99.90;;;;;;4388056;32;20173;-61
2022/02/10 10:52:30;;;;;;;245.77;235.73;;;10.50;99.90;;;;;;4386912;32;20195;-61
2022/02/10 10:55:26;;;;;;;248.43;238.50;;;10.00;99.90;;;;;;4388748;32;20168;-62
2022/02/10 10:57:55;;;;;;;298.47;285.90;;;9.70;99.90;;;;;;4388011;32;20168;-63
2022/02/10 11:00:38;;;;;;;307.50;294.63;;;9.50;99.90;;;;;;4409876;32;20179;-62
2022/02/10 11:37:29;;;;;;;296.20;283.73;;;10.40;99.90;;;;;;4375328;32;20195;-62
2022/02/10 11:43:28;;;;;;;281.80;270.30;;;10.50;99.90;;;;;;4370008;32;20224;-61
2022/02/10 12:30:08;;;;;;;271.27;259.57;;;10.30;99.90;;;;;;4425136;32;20218;-61
2022/02/10 13:02:37;;;;;;;194.27;185.87;;;10.50;99.90;;;;;;4430776;32;20177;-62
2022/02/10 13:24:47;;;;;;;228.60;218.77;;;10.00;99.90;;;;;;4427508;32;20329;-63
2022/02/10 14:11:44;;;;;;;229.80;220.10;;;9.80;99.90;;;;;;4335127;33;20224;-64
2022/02/10 14:14:13;;;;;;;187.13;179.00;;;9.90;99.90;;;;;;4332009;33;20633;-63
2022/02/10 14:17:04;;;;;;;147.40;141.07;;;9.80;99.90;;;;;;4328471;33;20338;-61
2022/02/10 14:19:39;;;;;;;172.47;165.20;;;9.70;99.90;;;;;;4329988;33;20174;-63
2022/02/10 14:22:25;;;;;;;209.57;200.90;;;9.40;99.90;;;;;;4330837;33;20177;-61
2022/02/10 14:28:06;;;;;;;223.43;214.23;;;9.20;99.90;;;;;;4391320;32;20174;-61
2022/02/10 14:30:47;;;;;;;169.47;162.00;;;9.30;99.90;;;;;;4435113;32;20174;-61
2022/02/10 14:33:30;;;;;;;187.57;179.30;;;9.30;99.90;;;;;;4436137;32;20573;-63
2022/02/10 14:36:11;;;;;;;205.23;196.47;;;9.30;99.90;;;;;;4434537;32;20554;-61
2022/02/10 14:38:51;;;;;;;179.67;172.13;;;9.30;99.90;;;;;;4434117;32;20507;-62
2022/02/10 15:28:53;;;;;;;300.40;287.20;;;8.40;99.90;;;;;;4316603;33;20248;-63
2022/02/10 15:51:28;;;;;;;285.17;273.33;;;7.90;99.90;;;;;;4336802;33;20497;-61
2022/02/10 16:17:38;;;;;;;332.70;318.70;;;7.40;99.90;;;;;;4301716;33;20189;-61
2022/02/10 16:20:16;;;;;;;322.60;309.33;;;7.40;99.90;;;;;;4318594;33;20471;-63
2022/02/10 16:23:05;;;;;;;318.07;304.90;;;7.40;99.90;;;;;;4302595;33;20691;-61
2022/02/10 16:28:35;;;;;;;340.63;326.53;;;7.30;99.90;;;;;;4315855;33;20193;-62
2022/02/10 16:31:05;;;;;;;378.90;362.73;;;7.20;99.90;;;;;;4316643;33;20463;-61
2022/02/10 16:33:40;;;;;;;362.53;346.90;;;7.20;99.90;;;;;;4314376;33;20197;-63
2022/02/10 16:36:08;;;;;;;366.97;351.47;;;7.20;99.90;;;;;;4316000;33;20169;-62
2022/02/10 16:38:43;;;;;;;381.43;364.53;;;7.20;99.90;;;;;;4316264;33;20165;-64
2022/02/10 16:41:31;;;;;;;388.23;372.13;;;7.20;99.90;;;;;;4320575;33;20221;-64
2022/02/10 16:46:56;;;;;;;363.53;348.13;;;7.20;99.90;;;;;;4355439;32;20216;-62
2022/02/10 16:49:24;;;;;;;354.20;338.80;;;7.10;99.90;;;;;;4418449;32;20145;-64
2022/02/10 16:51:56;;;;;;;365.40;350.00;;;7.10;99.90;;;;;;4435385;32;20178;-65
2022/02/10 16:54:33;;;;;;;375.03;358.07;;;7.10;99.90;;;;;;4432111;32;20489;-63
2022/02/10 16:57:17;;;;;;;347.50;332.20;;;7.00;99.90;;;;;;4430505;32;20198;-62
2022/02/10 17:00:12;;;;;;;343.60;329.10;;;7.00;99.90;;;;;;4435775;32;20165;-63
2022/02/10 17:03:12;;;;;;;355.27;340.50;;;6.90;99.90;;;;;;4425794;32;20174;-61
2022/02/10 17:06:06;;;;;;;366.53;351.13;;;6.90;99.90;;;;;;4440986;32;20156;-62
2022/02/10 17:14:20;;;;;;;363.40;347.90;;;6.80;99.90;;;;;;4401732;32;20194;-65
2022/02/10 17:17:22;;;;;;;351.50;336.53;;;6.80;99.90;;;;;;4401322;32;20293;-64
2022/02/10 17:20:11;;;;;;;373.67;358.00;;;6.70;99.90;;;;;;4392294;32;20697;-62
2022/02/10 17:25:36;;;;;;;358.00;342.37;;;6.80;99.90;;;;;;4398131;32;20167;-64
2022/02/10 17:28:07;;;;;;;376.97;360.90;;;6.70;99.90;;;;;;4402290;32;20231;-63
2022/02/10 17:33:27;;;;;;;373.77;357.53;;;6.70;99.90;;;;;;4403606;32;20170;-62
2022/02/10 17:36:12;;;;;;;383.17;366.63;;;6.60;99.90;;;;;;4401345;32;20468;-61
2022/02/10 17:42:15;;;;;;;377.43;361.53;;;6.60;99.90;;;;;;4398570;32;20255;-61
2022/02/10 17:45:38;;;;;;;386.77;370.37;;;6.60;99.90;;;;;;4403077;32;20198;-62
2022/02/10 17:51:32;;;;;;;382.93;366.43;;;6.50;99.90;;;;;;4405931;32;20183;-61
2022/02/10 17:54:28;;;;;;;394.50;377.00;;;6.60;99.90;;;;;;4403855;32;20624;-61
2022/02/10 17:57:04;;;;;;;406.77;388.93;;;6.60;99.90;;;;;;4403258;32;20612;-61
2022/02/10 17:59:54;;;;;;;399.53;382.37;;;6.50;99.90;;;;;;4405221;32;20159;-61
2022/02/10 18:02:21;;;;;;;388.73;371.57;;;6.50;99.90;;;;;;4402741;32;20222;-61
2022/02/10 18:08:07;;;;;;;403.93;386.47;;;6.60;99.90;;;;;;4396260;32;20588;-62
2022/02/10 18:11:33;;;;;;;403.87;386.43;;;6.60;99.90;;;;;;4400578;32;20489;-62
2022/02/10 18:14:08;;;;;;;379.93;363.97;;;6.50;99.90;;;;;;4405653;32;20202;-62
2022/02/10 18:16:46;;;;;;;388.47;371.73;;;6.50;99.90;;;;;;4402584;32;20362;-62
2022/02/10 18:19:34;;;;;;;385.67;369.40;;;6.40;99.90;;;;;;4399802;32;20191;-62
2022/02/10 18:25:22;;;;;;;414.07;395.73;;;6.40;99.90;;;;;;4379776;32;20160;-61
2022/02/10 18:28:22;;;;;;;398.07;380.40;;;6.40;99.90;;;;;;4391072;32;20212;-62
2022/02/10 19:08:21;;;;;;;391.23;374.17;;;6.20;99.90;;;;;;4271361;33;20201;-62
2022/02/10 19:10:57;;;;;;;424.00;405.43;;;6.10;99.90;;;;;;4267906;33;20597;-62
2022/02/10 19:13:31;;;;;;;417.63;399.30;;;6.00;99.90;;;;;;4288548;33;20672;-62
2022/02/10 19:16:02;;;;;;;401.40;384.00;;;6.10;99.90;;;;;;4314646;33;20158;-61
2022/02/10 19:18:43;;;;;;;413.17;394.73;;;6.00;99.90;;;;;;4312929;33;20173;-61
2022/02/10 19:21:24;;;;;;;401.17;383.77;;;6.00;99.90;;;;;;4312150;33;20621;-61
2022/02/10 19:24:11;;;;;;;395.97;378.93;;;6.00;99.90;;;;;;4309772;33;20252;-61
2022/02/10 19:26:50;;;;;;;;;;;;;;;;;;;;;
2022/02/10 19:29:38;;;;;;;409.70;391.70;;;6.00;99.90;;;;;;4310094;33;20172;-61
2022/02/10 19:32:09;;;;;;;378.17;361.90;;;6.00;99.90;;;;;;4435734;32;20159;-61
2022/02/10 19:34:38;;;;;;;421.33;403.00;;;6.10;99.90;;;;;;4438662;32;20193;-61
2022/02/10 19:37:09;;;;;;;395.00;378.13;;;6.00;99.90;;;;;;4429248;32;20191;-61
2022/02/10 19:39:43;;;;;;;416.43;398.23;;;6.00;99.90;;;;;;4435126;32;20182;-61
2022/02/10 19:42:11;;;;;;;417.00;399.03;;;6.00;99.90;;;;;;4436841;32;20575;-61
2022/02/10 19:45:01;;;;;;;409.17;391.07;;;6.00;99.90;;;;;;4439401;32;20499;-61
2022/02/10 19:51:12;;;;;;;390.43;373.33;;;5.90;99.90;;;;;;4368984;32;20175;-61
2022/02/10 19:53:54;;;;;;;397.30;380.07;;;5.90;99.90;;;;;;4386239;32;20618;-61
2022/02/10 20:00:14;;;;;;;396.50;379.47;;;5.80;99.90;;;;;;4382487;32;20171;-61
2022/02/10 20:05:33;;;;;;;389.43;372.70;;;5.80;99.90;;;;;;4382583;32;20171;-62
2022/02/10 20:08:18;;;;;;;392.73;375.13;;;5.70;99.90;;;;;;4386142;32;20176;-61
2022/02/10 20:11:30;;;;;;;;;;;;;;;;;;;;;
2022/02/10 20:14:28;;;;;;;388.63;371.90;;;5.60;99.90;;;;;;4336911;33;20152;-61
2022/02/10 20:17:40;;;;;;;382.70;365.70;;;5.60;99.90;;;;;;4340819;33;20165;-61
2022/02/10 20:20:25;;;;;;;384.77;368.13;;;5.50;99.90;;;;;;4281004;33;20174;-60
2022/02/10 20:27:00;;;;;;;366.13;350.50;;;5.40;99.90;;;;;;4211518;33;20556;-61
2022/02/10 20:29:38;;;;;;;373.93;357.70;;;5.40;99.90;;;;;;4255153;33;20178;-61
2022/02/10 20:39:23;;;;;;;374.70;359.00;;;5.30;99.90;;;;;;4185120;34;20181;-61
2022/02/10 21:11:09;;;;;;;376.87;360.03;;;5.60;99.90;;;;;;4233306;33;20262;-62
2022/02/10 21:13:37;;;;;;;392.13;375.60;;;5.70;99.90;;;;;;4247769;33;20220;-61
2022/02/10 21:16:10;;;;;;;384.90;367.97;;;5.70;99.90;;;;;;4242390;33;20199;-62
2022/02/10 21:18:56;;;;;;;359.97;344.47;;;5.80;99.90;;;;;;4244534;33;20286;-61
2022/02/10 21:21:33;;;;;;;375.10;359.20;;;5.80;99.90;;;;;;4245956;33;20218;-61
2022/02/10 21:24:26;;;;;;;367.87;352.17;;;5.80;99.90;;;;;;4258568;33;20200;-61
2022/02/10 21:27:17;;;;;;;369.67;353.60;;;5.80;99.90;;;;;;4269030;33;20589;-60
2022/02/10 21:30:00;;;;;;;375.83;359.50;;;5.60;99.90;;;;;;4272117;33;20202;-60
2022/02/10 21:32:33;;;;;;;370.63;354.47;;;5.50;99.90;;;;;;4269336;33;20197;-61
2022/02/10 21:35:12;;;;;;;381.07;364.73;;;5.50;99.90;;;;;;4269868;33;20215;-61
2022/02/10 21:37:55;;;;;;;372.30;356.10;;;5.40;99.90;;;;;;4267929;33;20159;-61
2022/02/10 21:40:42;;;;;;;375.27;359.43;;;5.30;99.90;;;;;;4268346;33;20922;-61
2022/02/10 21:57:22;;;;;;;389.97;373.37;;;4.80;99.90;;;;;;4250098;33;20207;-61
2022/02/10 22:42:52;;;;;;;359.93;344.67;;;4.10;99.90;;;;;;4214553;33;20206;-60
2022/02/10 22:45:23;;;;;;;378.00;361.93;;;4.10;99.90;;;;;;4224317;34;20182;-60
2022/02/10 22:47:59;;;;;;;394.27;377.20;;;4.10;99.90;;;;;;4233085;33;20189;-60
2022/02/10 22:50:33;;;;;;;387.27;370.10;;;4.10;99.90;;;;;;4233162;33;20159;-60
2022/02/10 22:53:10;;;;;;;390.30;373.03;;;4.00;99.90;;;;;;4231274;33;20175;-61
2022/02/10 22:55:42;;;;;;;384.57;366.97;;;4.10;99.90;;;;;;4225541;33;20287;-61
2022/02/10 22:58:20;;;;;;;390.90;374.00;;;4.00;99.90;;;;;;4235059;33;20604;-61
2022/02/10 23:00:59;;;;;;;393.60;376.67;;;4.00;99.90;;;;;;4229120;34;20160;-61
2022/02/10 23:03:32;;;;;;;390.63;373.07;;;4.00;99.90;;;;;;4230675;33;20189;-61
2022/02/10 23:06:08;;;;;;;398.27;381.50;;;3.90;99.90;;;;;;4250612;33;20182;-61
2022/02/10 23:08:42;;;;;;;380.93;364.37;;;3.90;99.90;;;;;;4239084;33;20227;-62
2022/02/10 23:11:26;;;;;;;387.33;370.67;;;3.90;99.90;;;;;;4242738;33;20223;-60
2022/02/10 23:14:03;;;;;;;390.53;373.57;;;3.90;99.90;;;;;;4242876;33;20533;-60
2022/02/10 23:16:37;;;;;;;386.80;369.43;;;3.90;99.90;;;;;;4240937;33;20231;-61
2022/02/10 23:19:06;;;;;;;416.77;398.63;;;4.00;99.90;;;;;;4253469;33;20238;-61
2022/02/10 23:21:33;;;;;;;393.83;377.07;;;4.10;99.90;;;;;;4243818;33;20241;-60
2022/02/10 23:24:00;;;;;;;389.90;373.17;;;4.00;99.90;;;;;;4242390;33;20620;-61
2022/02/10 23:26:44;;;;;;;389.03;372.00;;;4.00;99.90;;;;;;4243455;33;20190;-60
2022/02/10 23:29:24;;;;;;;379.03;362.63;;;3.90;99.90;;;;;;4242928;33;20623;-61
2022/02/10 23:32:10;;;;;;;381.53;364.70;;;3.90;99.90;;;;;;4242051;33;20178;-61
2022/02/10 23:34:42;;;;;;;395.77;377.77;;;3.90;99.90;;;;;;4242492;33;20230;-60
2022/02/10 23:37:16;;;;;;;381.30;364.20;;;3.80;99.90;;;;;;4242848;33;20616;-61
2022/02/10 23:39:46;;;;;;;383.27;366.63;;;3.90;99.90;;;;;;4242399;33;20167;-61
2022/02/10 23:42:41;;;;;;;;;;;;;;;;;;;;;
2022/02/10 23:45:20;;;;;;;386.30;368.87;;;3.80;99.90;;;;;;4243337;33;20499;-61
2022/02/10 23:48:06;;;;;;;399.87;382.30;;;4.00;99.90;;;;;;4244073;33;20223;-61
2022/02/10 23:50:43;;;;;;;398.27;380.57;;;4.10;99.90;;;;;;4237852;33;20140;-61
2022/02/10 23:53:10;;;;;;;406.70;389.20;;;4.10;99.90;;;;;;4241326;33;20519;-61
2022/02/10 23:56:06;;;;;;;417.73;399.63;;;4.10;99.90;;;;;;4242120;33;20223;-61
2022/02/10 23:59:05;;;;;;;390.57;373.97;;;4.10;99.90;;;;;;4242716;33;20186;-61
